Terminal Aerodrome Forecast
Issued by NWS Charleston, WV

Current Version | Previous Version | Text Only | Print | Product List | Glossary Off
Versions: 1 2 3 4 5 6 7 8 9 10 11 12 13 14 15 16 17 18 19 20 21 22 23 24 25 26 27 28

000
FTUS41 KRLX 150200 AAA
TAFEKN
TAF AMD
KEKN 150233Z 1503/1524 15005KT P6SM OVC080
     FM150700 16008KT 4SM BR OVC025
     FM151000 18009KT 2SM -SHRA BR OVC015
     FM151200 22008KT 2SM -SHRA BR OVC010
     FM151500 28011KT 2SM -SHRA OVC008
     FM151700 30014G20KT 2SM -SHRA OVC008
     FM151900 29015G23KT 3SM -SHRA OVC015
     FM152300 30013G21KT 6SM BR OVC025=

USA.gov is the U.S. government's official web portal to all federal, state and local government web resources and services.